VEJS/IXW METAR and TAF weather

Enter ICAO airport designator
Station Type Date Time Source
VEJS METAR 2021/09/28 05:00 UTC NOAA

VEJS 280500Z 09002KT 5000 HZ SCT015 SCT025 BKN100 30/24 Q1008


Station Type Date Time Source
VEJS Decoded METAR 2021/09/28 05:00 UTC NOAA

Jamshedpur, India (VEJS) 22-49N 086-11E 142M
Sep 28, 2021 - 01:00 AM EDT / 2021.09.28 0500 UTC
Wind: from the E (090 degrees) at 2 MPH (2 KT):0
Visibility: 3 mile(s):0
Sky conditions: mostly cloudy
Weather: haze
Temperature: 86 F (30 C)
Heat index: 95.0 F (35.0 C):1
Dew Point: 75 F (24 C)
Relative Humidity: 70%
Pressure (altimeter): 29.77 in. Hg (1008 hPa)
ob: VEJS 280500Z 09002KT 5000 HZ SCT015 SCT025 BKN100 30/24 Q1008
cycle: 5

Station Type Date Time Source
VEJS TAF 2009/11/01 09:00 UTC NOAA

TAF VEJS 010900Z 0112/0121 36004KT 2500 HZ FEW020 SCT025 SCT100
BECMG 0116/0118 00000KT 2000 HZ FEW018 SCT
BECMG 0119/0121 00000KT 1600 BR

Example: see airport list